sensor_id;sensor_type;location;lat;lon;timestamp;pressure;altitude;pressure_sealevel;temperature;humidity
3294;BME280;1659;51.470;6.770;2023-06-01T00:01:17;101982.22;;;15.95;58.95
3294;BME280;1659;51.470;6.770;2023-06-01T00:04:20;101984.13;;;15.88;59.55
3294;BME280;1659;51.470;6.770;2023-06-01T00:07:03;101984.28;;;15.82;59.68
3294;BME280;1659;51.470;6.770;2023-06-01T00:09:51;101987.06;;;15.76;59.85
3294;BME280;1659;51.470;6.770;2023-06-01T00:15:29;101989.03;;;15.64;59.84
3294;BME280;1659;51.470;6.770;2023-06-01T00:18:14;101988.25;;;15.59;60.20
3294;BME280;1659;51.470;6.770;2023-06-01T00:20:53;101988.34;;;15.53;60.04
3294;BME280;1659;51.470;6.770;2023-06-01T00:29:30;101995.75;;;15.39;60.49
3294;BME280;1659;51.470;6.770;2023-06-01T00:32:19;101994.97;;;15.34;60.66
3294;BME280;1659;51.470;6.770;2023-06-01T00:34:54;101990.63;;;15.28;60.60
3294;BME280;1659;51.470;6.770;2023-06-01T00:37:52;101995.19;;;15.21;61.01
3294;BME280;1659;51.470;6.770;2023-06-01T00:40:40;101990.88;;;15.16;61.43
3294;BME280;1659;51.470;6.770;2023-06-01T00:43:15;101989.19;;;15.10;61.29
3294;BME280;1659;51.470;6.770;2023-06-01T00:45:58;101993.69;;;15.06;61.64
3294;BME280;1659;51.470;6.770;2023-06-01T00:48:29;101991.09;;;15.02;61.20
3294;BME280;1659;51.470;6.770;2023-06-01T00:51:11;101983.19;;;14.97;61.67
3294;BME280;1659;51.470;6.770;2023-06-01T00:54:11;101988.63;;;14.93;61.93
3294;BME280;1659;51.470;6.770;2023-06-01T00:56:56;101989.63;;;14.85;62.02
3294;BME280;1659;51.470;6.770;2023-06-01T00:59:36;101979.06;;;14.79;61.95
3294;BME280;1659;51.470;6.770;2023-06-01T01:02:12;101978.25;;;14.76;61.85
3294;BME280;1659;51.470;6.770;2023-06-01T01:05:06;101983.66;;;14.69;61.99
3294;BME280;1659;51.470;6.770;2023-06-01T01:08:14;101980.25;;;14.63;62.43
3294;BME280;1659;51.470;6.770;2023-06-01T01:11:05;101986.47;;;14.57;62.21
3294;BME280;1659;51.470;6.770;2023-06-01T01:13:43;101987.44;;;14.53;62.59
3294;BME280;1659;51.470;6.770;2023-06-01T01:16:30;101984.00;;;14.46;62.55
3294;BME280;1659;51.470;6.770;2023-06-01T01:28:40;101990.63;;;14.19;63.57
3294;BME280;1659;51.470;6.770;2023-06-01T01:31:13;101980.97;;;14.12;63.69
3294;BME280;1659;51.470;6.770;2023-06-01T01:33:59;101990.81;;;14.05;64.12
3294;BME280;1659;51.470;6.770;2023-06-01T01:36:52;101990.88;;;13.99;64.10
3294;BME280;1659;51.470;6.770;2023-06-01T01:42:33;101988.41;;;13.85;64.22
3294;BME280;1659;51.470;6.770;2023-06-01T01:45:06;101980.53;;;13.79;64.49
3294;BME280;1659;51.470;6.770;2023-06-01T01:47:49;101985.88;;;13.74;64.72
3294;BME280;1659;51.470;6.770;2023-06-01T01:50:36;101987.72;;;13.68;65.02
3294;BME280;1659;51.470;6.770;2023-06-01T01:53:31;101986.06;;;13.59;65.47
3294;BME280;1659;51.470;6.770;2023-06-01T01:56:22;101990.56;;;13.52;65.27
3294;BME280;1659;51.470;6.770;2023-06-01T01:59:22;101989.78;;;13.46;65.73
3294;BME280;1659;51.470;6.770;2023-06-01T02:02:02;101998.66;;;13.40;65.97
3294;BME280;1659;51.470;6.770;2023-06-01T02:05:01;101989.00;;;13.33;65.74
3294;BME280;1659;51.470;6.770;2023-06-01T02:07:47;101991.72;;;13.25;66.06
3294;BME280;1659;51.470;6.770;2023-06-01T02:10:32;101989.13;;;13.19;66.69
3294;BME280;1659;51.470;6.770;2023-06-01T02:13:22;101992.72;;;13.12;66.64
3294;BME280;1659;51.470;6.770;2023-06-01T02:16:02;101984.84;;;13.06;66.67
3294;BME280;1659;51.470;6.770;2023-06-01T02:18:54;101990.22;;;12.96;67.12
3294;BME280;1659;51.470;6.770;2023-06-01T02:25:10;101990.38;;;12.81;67.44
3294;BME280;1659;51.470;6.770;2023-06-01T02:28:11;102001.06;;;12.70;67.88
3294;BME280;1659;51.470;6.770;2023-06-01T02:31:07;102000.25;;;12.63;68.01
3294;BME280;1659;51.470;6.770;2023-06-01T02:37:01;101996.78;;;12.49;68.75
3294;BME280;1659;51.470;6.770;2023-06-01T02:39:41;101996.84;;;12.43;68.98
3294;BME280;1659;51.470;6.770;2023-06-01T02:42:09;101998.63;;;12.39;69.14
3294;BME280;1659;51.470;6.770;2023-06-01T02:48:15;101999.59;;;12.27;69.39
3294;BME280;1659;51.470;6.770;2023-06-01T02:51:51;101996.97;;;12.23;69.66
3294;BME280;1659;51.470;6.770;2023-06-01T03:01:01;101997.00;;;12.14;70.23
3294;BME280;1659;51.470;6.770;2023-06-01T03:03:49;101994.34;;;12.18;70.01
3294;BME280;1659;51.470;6.770;2023-06-01T03:06:48;101990.78;;;12.19;70.35
3294;BME280;1659;51.470;6.770;2023-06-01T03:12:41;102001.38;;;12.22;70.47
3294;BME280;1659;51.470;6.770;2023-06-01T03:15:44;101998.72;;;12.24;70.63
3294;BME280;1659;51.470;6.770;2023-06-01T03:18:45;102002.25;;;12.26;70.57
3294;BME280;1659;51.470;6.770;2023-06-01T03:24:13;102009.31;;;12.27;70.56
3294;BME280;1659;51.470;6.770;2023-06-01T03:47:43;102009.22;;;12.42;69.80
3294;BME280;1659;51.470;6.770;2023-06-01T03:50:37;102012.75;;;12.43;70.12
3294;BME280;1659;51.470;6.770;2023-06-01T04:03:38;102016.38;;;12.28;70.41
3294;BME280;1659;51.470;6.770;2023-06-01T04:09:48;102019.13;;;12.11;70.27
3294;BME280;1659;51.470;6.770;2023-06-01T04:13:00;102020.88;;;12.09;70.40
3294;BME280;1659;51.470;6.770;2023-06-01T04:25:52;102020.84;;;12.18;69.84
3294;BME280;1659;51.470;6.770;2023-06-01T04:35:47;102029.66;;;12.22;69.71
3294;BME280;1659;51.470;6.770;2023-06-01T04:38:48;102036.75;;;12.15;69.78
3294;BME280;1659;51.470;6.770;2023-06-01T04:55:18;102034.97;;;12.17;69.30
3294;BME280;1659;51.470;6.770;2023-06-01T04:58:13;102034.97;;;12.23;69.22
3294;BME280;1659;51.470;6.770;2023-06-01T05:08:16;102026.88;;;12.43;68.51
3294;BME280;1659;51.470;6.770;2023-06-01T05:11:17;102024.22;;;12.48;68.70
3294;BME280;1659;51.470;6.770;2023-06-01T05:14:17;102022.41;;;12.53;68.65
3294;BME280;1659;51.470;6.770;2023-06-01T05:17:17;102025.03;;;12.56;68.36
3294;BME280;1659;51.470;6.770;2023-06-01T05:54:03;102047.56;;;13.16;66.97
3294;BME280;1659;51.470;6.770;2023-06-01T05:56:30;102043.94;;;13.25;66.70
3294;BME280;1659;51.470;6.770;2023-06-01T05:58:56;102037.72;;;13.32;66.65
3294;BME280;1659;51.470;6.770;2023-06-01T06:01:23;102036.75;;;13.42;66.45
3294;BME280;1659;51.470;6.770;2023-06-01T06:03:49;102034.81;;;13.56;66.15
3294;BME280;1659;51.470;6.770;2023-06-01T06:06:18;102036.50;;;13.62;66.12
3294;BME280;1659;51.470;6.770;2023-06-01T06:08:44;102032.88;;;13.71;66.20
3294;BME280;1659;51.470;6.770;2023-06-01T06:11:11;102027.53;;;13.74;65.67
3294;BME280;1659;51.470;6.770;2023-06-01T06:13:38;102031.84;;;13.83;65.61
3294;BME280;1659;51.470;6.770;2023-06-01T06:16:04;102037.00;;;13.96;65.60
3294;BME280;1659;51.470;6.770;2023-06-01T06:18:31;102021.72;;;14.12;64.85
3294;BME280;1659;51.470;6.770;2023-06-01T06:20:58;102021.44;;;14.32;64.59
3294;BME280;1659;51.470;6.770;2023-06-01T06:23:26;102014.19;;;14.44;64.49
3294;BME280;1659;51.470;6.770;2023-06-01T06:25:55;102025.66;;;14.49;64.11
3294;BME280;1659;51.470;6.770;2023-06-01T06:28:21;102013.03;;;14.65;63.67
3294;BME280;1659;51.470;6.770;2023-06-01T06:30:48;102020.56;;;14.91;63.34
3294;BME280;1659;51.470;6.770;2023-06-01T06:33:15;102024.63;;;15.14;63.08
3294;BME280;1659;51.470;6.770;2023-06-01T06:35:42;102021.38;;;15.91;61.21
3294;BME280;1659;51.470;6.770;2023-06-01T06:38:11;102022.19;;;17.10;58.86
3294;BME280;1659;51.470;6.770;2023-06-01T06:40:39;102011.38;;;18.12;56.85
3294;BME280;1659;51.470;6.770;2023-06-01T06:43:06;102013.53;;;19.11;55.08
3294;BME280;1659;51.470;6.770;2023-06-01T06:45:32;102019.41;;;19.71;54.07
3294;BME280;1659;51.470;6.770;2023-06-01T06:47:59;102020.16;;;20.23;53.31
3294;BME280;1659;51.470;6.770;2023-06-01T06:50:25;102019.66;;;20.81;52.43
3294;BME280;1659;51.470;6.770;2023-06-01T06:52:52;102013.56;;;21.39;51.74
3294;BME280;1659;51.470;6.770;2023-06-01T06:55:18;102017.66;;;21.87;50.72
3294;BME280;1659;51.470;6.770;2023-06-01T06:57:47;102015.75;;;22.29;49.63
3294;BME280;1659;51.470;6.770;2023-06-01T07:00:14;102009.63;;;22.44;49.41
3294;BME280;1659;51.470;6.770;2023-06-01T07:02:41;102012.06;;;22.68;48.73
3294;BME280;1659;51.470;6.770;2023-06-01T07:05:09;102009.13;;;22.73;48.88
3294;BME280;1659;51.470;6.770;2023-06-01T07:07:36;102017.19;;;22.73;49.15
3294;BME280;1659;51.470;6.770;2023-06-01T07:10:04;102011.63;;;23.12;48.26
3294;BME280;1659;51.470;6.770;2023-06-01T07:12:31;102013.06;;;22.66;48.94
3294;BME280;1659;51.470;6.770;2023-06-01T07:14:59;102025.00;;;21.84;49.61
3294;BME280;1659;51.470;6.770;2023-06-01T07:17:25;102026.00;;;21.62;50.26
3294;BME280;1659;51.470;6.770;2023-06-01T07:19:52;102027.44;;;20.87;51.20
3294;BME280;1659;51.470;6.770;2023-06-01T07:22:18;102032.53;;;20.49;51.64
3294;BME280;1659;51.470;6.770;2023-06-01T07:24:46;102034.41;;;20.91;50.57
3294;BME280;1659;51.470;6.770;2023-06-01T07:27:13;102028.91;;;20.94;50.18
3294;BME280;1659;51.470;6.770;2023-06-01T07:29:40;102036.41;;;21.08;49.83
3294;BME280;1659;51.470;6.770;2023-06-01T07:32:11;102032.53;;;21.57;48.54
3294;BME280;1659;51.470;6.770;2023-06-01T07:34:37;102021.53;;;21.82;48.20
3294;BME280;1659;51.470;6.770;2023-06-01T07:37:04;102019.97;;;22.16;47.51
3294;BME280;1659;51.470;6.770;2023-06-01T07:39:32;102024.78;;;22.47;46.90
3294;BME280;1659;51.470;6.770;2023-06-01T07:41:59;102032.31;;;22.94;46.03
3294;BME280;1659;51.470;6.770;2023-06-01T07:44:26;102024.53;;;23.58;45.09
3294;BME280;1659;51.470;6.770;2023-06-01T07:46:53;102021.19;;;23.53;45.18
3294;BME280;1659;51.470;6.770;2023-06-01T07:49:21;102028.16;;;23.05;45.95
3294;BME280;1659;51.470;6.770;2023-06-01T07:51:47;102021.31;;;22.80;46.44
3294;BME280;1659;51.470;6.770;2023-06-01T07:54:16;102020.09;;;22.51;46.63
3294;BME280;1659;51.470;6.770;2023-06-01T07:56:43;102021.25;;;22.45;46.84
3294;BME280;1659;51.470;6.770;2023-06-01T07:59:10;102029.19;;;22.48;46.70
3294;BME280;1659;51.470;6.770;2023-06-01T08:01:36;102019.63;;;22.96;45.43
3294;BME280;1659;51.470;6.770;2023-06-01T08:04:03;102020.28;;;23.19;44.81
3294;BME280;1659;51.470;6.770;2023-06-01T08:06:31;102021.97;;;23.55;44.06
3294;BME280;1659;51.470;6.770;2023-06-01T08:09:01;102018.13;;;23.77;43.50
3294;BME280;1659;51.470;6.770;2023-06-01T08:11:28;102026.91;;;23.98;42.95
3294;BME280;1659;51.470;6.770;2023-06-01T08:13:54;102014.03;;;24.03;42.34
3294;BME280;1659;51.470;6.770;2023-06-01T08:16:21;102018.81;;;24.13;42.53
3294;BME280;1659;51.470;6.770;2023-06-01T08:18:48;102016.13;;;24.45;41.92
3294;BME280;1659;51.470;6.770;2023-06-01T08:21:14;102013.94;;;24.68;41.16
3294;BME280;1659;51.470;6.770;2023-06-01T08:23:44;102009.81;;;24.77;41.43
3294;BME280;1659;51.470;6.770;2023-06-01T08:26:12;102013.00;;;24.99;40.98
3294;BME280;1659;51.470;6.770;2023-06-01T08:28:39;102015.84;;;25.42;40.47
3294;BME280;1659;51.470;6.770;2023-06-01T08:31:05;101999.22;;;25.77;39.88
3294;BME280;1659;51.470;6.770;2023-06-01T08:33:32;102000.75;;;25.81;39.97
3294;BME280;1659;51.470;6.770;2023-06-01T08:35:58;101994.94;;;25.73;39.91
3294;BME280;1659;51.470;6.770;2023-06-01T08:38:25;101998.50;;;25.59;39.91
3294;BME280;1659;51.470;6.770;2023-06-01T08:41:01;101997.84;;;25.85;39.38
3294;BME280;1659;51.470;6.770;2023-06-01T08:43:30;101986.94;;;26.00;39.16
3294;BME280;1659;51.470;6.770;2023-06-01T08:45:59;101985.25;;;26.12;39.29
3294;BME280;1659;51.470;6.770;2023-06-01T08:48:27;101979.56;;;26.03;39.33
3294;BME280;1659;51.470;6.770;2023-06-01T08:50:56;101988.06;;;25.82;39.23
3294;BME280;1659;51.470;6.770;2023-06-01T08:53:22;101983.13;;;25.89;39.09
3294;BME280;1659;51.470;6.770;2023-06-01T08:55:53;101979.16;;;26.09;38.54
3294;BME280;1659;51.470;6.770;2023-06-01T08:58:21;101977.19;;;26.25;38.37
3294;BME280;1659;51.470;6.770;2023-06-01T09:00:48;101973.13;;;26.45;38.10
3294;BME280;1659;51.470;6.770;2023-06-01T09:03:15;101972.84;;;26.77;37.50
3294;BME280;1659;51.470;6.770;2023-06-01T09:05:41;101971.78;;;26.92;37.43
3294;BME280;1659;51.470;6.770;2023-06-01T09:08:09;101964.31;;;27.09;36.91
3294;BME280;1659;51.470;6.770;2023-06-01T09:10:36;101955.63;;;27.04;36.77
3294;BME280;1659;51.470;6.770;2023-06-01T09:13:02;101950.56;;;27.12;36.50
3294;BME280;1659;51.470;6.770;2023-06-01T09:15:31;101956.28;;;27.07;36.50
3294;BME280;1659;51.470;6.770;2023-06-01T09:18:05;101960.09;;;27.18;36.06
3294;BME280;1659;51.470;6.770;2023-06-01T09:20:32;101968.88;;;27.21;36.19
3294;BME280;1659;51.470;6.770;2023-06-01T09:22:59;101956.84;;;27.25;35.94
3294;BME280;1659;51.470;6.770;2023-06-01T09:25:28;101962.97;;;27.42;35.74
3294;BME280;1659;51.470;6.770;2023-06-01T09:27:56;101960.53;;;27.50;35.60
3294;BME280;1659;51.470;6.770;2023-06-01T09:30:24;101957.72;;;27.52;35.55
3294;BME280;1659;51.470;6.770;2023-06-01T09:33:06;101952.31;;;27.39;35.21
3294;BME280;1659;51.470;6.770;2023-06-01T09:35:41;101949.59;;;27.39;35.10
3294;BME280;1659;51.470;6.770;2023-06-01T09:38:08;101950.13;;;27.44;35.08
3294;BME280;1659;51.470;6.770;2023-06-01T09:40:37;101942.75;;;27.46;35.01
3294;BME280;1659;51.470;6.770;2023-06-01T09:43:18;101939.16;;;27.45;35.23
3294;BME280;1659;51.470;6.770;2023-06-01T09:46:03;101939.81;;;27.49;34.99
3294;BME280;1659;51.470;6.770;2023-06-01T09:48:31;101936.84;;;27.52;34.96
3294;BME280;1659;51.470;6.770;2023-06-01T09:50:58;101940.88;;;27.59;34.96
3294;BME280;1659;51.470;6.770;2023-06-01T09:53:25;101928.13;;;27.73;34.78
3294;BME280;1659;51.470;6.770;2023-06-01T09:55:57;101928.22;;;27.84;34.48
3294;BME280;1659;51.470;6.770;2023-06-01T09:58:24;101927.47;;;27.82;34.62
3294;BME280;1659;51.470;6.770;2023-06-01T10:00:51;101921.47;;;27.90;34.33
3294;BME280;1659;51.470;6.770;2023-06-01T10:03:19;101923.09;;;27.92;34.41
3294;BME280;1659;51.470;6.770;2023-06-01T10:05:48;101924.19;;;27.90;34.22
3294;BME280;1659;51.470;6.770;2023-06-01T10:08:16;101927.13;;;27.99;33.92
3294;BME280;1659;51.470;6.770;2023-06-01T10:10:44;101925.50;;;27.97;33.99
3294;BME280;1659;51.470;6.770;2023-06-01T10:13:11;101917.59;;;27.81;34.17
3294;BME280;1659;51.470;6.770;2023-06-01T10:15:38;101928.13;;;27.85;34.12
3294;BME280;1659;51.470;6.770;2023-06-01T10:18:05;101915.19;;;27.89;33.93
3294;BME280;1659;51.470;6.770;2023-06-01T10:20:32;101918.69;;;27.91;33.72
3294;BME280;1659;51.470;6.770;2023-06-01T10:23:02;101914.41;;;28.00;33.75
3294;BME280;1659;51.470;6.770;2023-06-01T10:25:31;101909.63;;;27.91;33.86
3294;BME280;1659;51.470;6.770;2023-06-01T10:28:02;101915.06;;;27.91;33.88
3294;BME280;1659;51.470;6.770;2023-06-01T10:30:32;101908.69;;;28.16;33.42
3294;BME280;1659;51.470;6.770;2023-06-01T10:32:59;101919.72;;;28.01;33.59
3294;BME280;1659;51.470;6.770;2023-06-01T10:35:51;101911.22;;;28.06;33.45
3294;BME280;1659;51.470;6.770;2023-06-01T10:38:24;101907.56;;;28.18;33.26
3294;BME280;1659;51.470;6.770;2023-06-01T10:40:51;101907.81;;;28.15;33.10
3294;BME280;1659;51.470;6.770;2023-06-01T10:43:40;101908.78;;;28.38;32.70
3294;BME280;1659;51.470;6.770;2023-06-01T10:46:34;101907.75;;;28.28;33.01
3294;BME280;1659;51.470;6.770;2023-06-01T10:49:03;101910.56;;;28.02;33.11
3294;BME280;1659;51.470;6.770;2023-06-01T10:51:30;101893.88;;;28.20;32.94
3294;BME280;1659;51.470;6.770;2023-06-01T10:54:27;101899.78;;;28.38;32.78
3294;BME280;1659;51.470;6.770;2023-06-01T10:57:19;101892.81;;;28.58;32.60
3294;BME280;1659;51.470;6.770;2023-06-01T11:00:14;101887.91;;;28.74;32.30
3294;BME280;1659;51.470;6.770;2023-06-01T11:02:49;101882.38;;;28.98;31.72
3294;BME280;1659;51.470;6.770;2023-06-01T11:08:50;101888.94;;;29.07;31.67
3294;BME280;1659;51.470;6.770;2023-06-01T11:11:19;101896.88;;;28.99;32.08
3294;BME280;1659;51.470;6.770;2023-06-01T11:14:11;101894.63;;;28.93;31.79
3294;BME280;1659;51.470;6.770;2023-06-01T11:16:40;101895.00;;;28.99;31.78
3294;BME280;1659;51.470;6.770;2023-06-01T11:19:07;101889.94;;;29.06;31.75
3294;BME280;1659;51.470;6.770;2023-06-01T11:21:38;101887.50;;;29.26;31.42
3294;BME280;1659;51.470;6.770;2023-06-01T11:26:37;101885.25;;;29.42;31.24
3294;BME280;1659;51.470;6.770;2023-06-01T11:29:07;101886.63;;;29.48;31.11
3294;BME280;1659;51.470;6.770;2023-06-01T11:31:35;101882.31;;;29.45;31.10
3294;BME280;1659;51.470;6.770;2023-06-01T11:34:03;101878.44;;;29.48;30.83
3294;BME280;1659;51.470;6.770;2023-06-01T11:36:36;101873.28;;;29.45;30.86
3294;BME280;1659;51.470;6.770;2023-06-01T11:39:03;101872.03;;;29.49;30.77
3294;BME280;1659;51.470;6.770;2023-06-01T11:41:33;101873.84;;;29.14;30.89
3294;BME280;1659;51.470;6.770;2023-06-01T11:44:01;101879.53;;;29.00;31.45
3294;BME280;1659;51.470;6.770;2023-06-01T11:46:28;101866.63;;;28.79;31.51
3294;BME280;1659;51.470;6.770;2023-06-01T11:48:59;101868.22;;;28.59;32.04
3294;BME280;1659;51.470;6.770;2023-06-01T11:51:28;101872.59;;;28.85;31.36
3294;BME280;1659;51.470;6.770;2023-06-01T11:53:55;101867.16;;;29.07;31.16
3294;BME280;1659;51.470;6.770;2023-06-01T11:56:28;101865.69;;;29.14;31.21
3294;BME280;1659;51.470;6.770;2023-06-01T11:58:56;101862.13;;;29.03;31.36
3294;BME280;1659;51.470;6.770;2023-06-01T12:01:25;101866.09;;;29.21;31.04
3294;BME280;1659;51.470;6.770;2023-06-01T12:03:51;101864.38;;;29.43;30.60
3294;BME280;1659;51.470;6.770;2023-06-01T12:06:19;101857.50;;;29.60;30.46
3294;BME280;1659;51.470;6.770;2023-06-01T12:08:47;101863.34;;;29.78;30.53
3294;BME280;1659;51.470;6.770;2023-06-01T12:11:14;101860.34;;;29.69;30.55
3294;BME280;1659;51.470;6.770;2023-06-01T12:13:41;101859.75;;;29.66;30.33
3294;BME280;1659;51.470;6.770;2023-06-01T12:16:08;101871.72;;;29.86;30.51
3294;BME280;1659;51.470;6.770;2023-06-01T12:18:36;101871.66;;;29.53;30.41
3294;BME280;1659;51.470;6.770;2023-06-01T12:21:09;101868.69;;;29.45;30.44
3294;BME280;1659;51.470;6.770;2023-06-01T12:23:35;101863.38;;;29.55;30.33
3294;BME280;1659;51.470;6.770;2023-06-01T12:26:02;101861.09;;;29.71;30.40
3294;BME280;1659;51.470;6.770;2023-06-01T12:28:29;101862.56;;;29.87;29.85
3294;BME280;1659;51.470;6.770;2023-06-01T12:31:13;101852.50;;;29.99;29.83
3294;BME280;1659;51.470;6.770;2023-06-01T12:33:42;101861.41;;;30.01;29.71
3294;BME280;1659;51.470;6.770;2023-06-01T12:36:10;101859.91;;;30.08;29.92
3294;BME280;1659;51.470;6.770;2023-06-01T12:38:49;101865.00;;;30.01;30.07
3294;BME280;1659;51.470;6.770;2023-06-01T12:41:17;101862.22;;;29.80;30.39
3294;BME280;1659;51.470;6.770;2023-06-01T12:43:44;101860.56;;;29.89;29.79
3294;BME280;1659;51.470;6.770;2023-06-01T12:46:17;101866.19;;;29.76;30.08
3294;BME280;1659;51.470;6.770;2023-06-01T12:48:46;101856.94;;;29.33;30.14
3294;BME280;1659;51.470;6.770;2023-06-01T12:51:13;101848.66;;;29.46;30.34
3294;BME280;1659;51.470;6.770;2023-06-01T12:53:40;101847.09;;;29.65;29.94
3294;BME280;1659;51.470;6.770;2023-06-01T12:56:07;101858.88;;;29.77;29.74
3294;BME280;1659;51.470;6.770;2023-06-01T12:58:34;101850.19;;;29.83;29.67
3294;BME280;1659;51.470;6.770;2023-06-01T13:01:01;101837.81;;;29.79;29.63
3294;BME280;1659;51.470;6.770;2023-06-01T13:03:28;101854.53;;;29.85;29.89
3294;BME280;1659;51.470;6.770;2023-06-01T13:05:56;101856.69;;;30.03;29.85
3294;BME280;1659;51.470;6.770;2023-06-01T13:08:22;101852.66;;;30.18;29.41
3294;BME280;1659;51.470;6.770;2023-06-01T13:10:49;101853.09;;;30.35;29.41
3294;BME280;1659;51.470;6.770;2023-06-01T13:13:16;101846.50;;;30.16;29.16
3294;BME280;1659;51.470;6.770;2023-06-01T13:15:43;101852.09;;;30.03;29.51
3294;BME280;1659;51.470;6.770;2023-06-01T13:18:10;101852.34;;;30.00;29.40
3294;BME280;1659;51.470;6.770;2023-06-01T13:20:37;101844.78;;;30.04;29.05
3294;BME280;1659;51.470;6.770;2023-06-01T13:23:05;101845.09;;;30.22;28.77
3294;BME280;1659;51.470;6.770;2023-06-01T13:25:32;101841.88;;;30.17;28.90
3294;BME280;1659;51.470;6.770;2023-06-01T13:27:59;101850.66;;;30.20;28.92
3294;BME280;1659;51.470;6.770;2023-06-01T13:30:26;101837.72;;;30.34;29.10
3294;BME280;1659;51.470;6.770;2023-06-01T13:32:53;101835.28;;;30.19;28.96
3294;BME280;1659;51.470;6.770;2023-06-01T13:35:20;101839.81;;;30.09;29.33
3294;BME280;1659;51.470;6.770;2023-06-01T13:37:46;101833.72;;;30.17;29.43
3294;BME280;1659;51.470;6.770;2023-06-01T13:40:15;101837.38;;;30.27;29.19
3294;BME280;1659;51.470;6.770;2023-06-01T13:42:43;101838.19;;;30.39;28.92
3294;BME280;1659;51.470;6.770;2023-06-01T13:45:10;101838.66;;;30.44;28.75
3294;BME280;1659;51.470;6.770;2023-06-01T13:47:37;101836.97;;;30.43;28.74
3294;BME280;1659;51.470;6.770;2023-06-01T13:50:04;101828.03;;;30.41;29.07
3294;BME280;1659;51.470;6.770;2023-06-01T13:52:31;101827.25;;;30.50;28.54
3294;BME280;1659;51.470;6.770;2023-06-01T13:54:58;101819.75;;;30.42;29.13
3294;BME280;1659;51.470;6.770;2023-06-01T13:57:26;101828.91;;;30.30;28.76
3294;BME280;1659;51.470;6.770;2023-06-01T13:59:52;101823.16;;;30.23;28.90
3294;BME280;1659;51.470;6.770;2023-06-01T14:02:19;101824.34;;;30.30;28.98
3294;BME280;1659;51.470;6.770;2023-06-01T14:04:46;101817.97;;;30.20;29.37
3294;BME280;1659;51.470;6.770;2023-06-01T14:07:12;101818.28;;;30.06;29.54
3294;BME280;1659;51.470;6.770;2023-06-01T14:09:39;101818.81;;;30.21;29.27
3294;BME280;1659;51.470;6.770;2023-06-01T14:12:06;101811.22;;;30.24;28.96
3294;BME280;1659;51.470;6.770;2023-06-01T14:14:34;101808.97;;;30.08;29.44
3294;BME280;1659;51.470;6.770;2023-06-01T14:17:01;101807.88;;;30.00;29.27
3294;BME280;1659;51.470;6.770;2023-06-01T14:19:27;101802.31;;;30.01;29.50
3294;BME280;1659;51.470;6.770;2023-06-01T14:21:54;101806.06;;;29.89;29.49
3294;BME280;1659;51.470;6.770;2023-06-01T14:24:21;101801.00;;;29.84;29.18
3294;BME280;1659;51.470;6.770;2023-06-01T14:26:48;101794.56;;;29.74;29.50
3294;BME280;1659;51.470;6.770;2023-06-01T14:29:14;101786.56;;;29.61;29.79
3294;BME280;1659;51.470;6.770;2023-06-01T14:31:42;101789.66;;;29.56;29.41
3294;BME280;1659;51.470;6.770;2023-06-01T14:34:09;101787.59;;;29.49;29.43
3294;BME280;1659;51.470;6.770;2023-06-01T14:36:35;101793.31;;;29.34;29.94
3294;BME280;1659;51.470;6.770;2023-06-01T14:39:02;101792.69;;;29.42;29.48
3294;BME280;1659;51.470;6.770;2023-06-01T14:41:30;101786.13;;;29.45;29.40
3294;BME280;1659;51.470;6.770;2023-06-01T14:43:56;101786.63;;;29.38;29.44
3294;BME280;1659;51.470;6.770;2023-06-01T14:46:23;101790.09;;;29.41;29.94
3294;BME280;1659;51.470;6.770;2023-06-01T14:48:51;101774.03;;;29.37;29.86
3294;BME280;1659;51.470;6.770;2023-06-01T14:51:17;101775.66;;;29.29;29.74
3294;BME280;1659;51.470;6.770;2023-06-01T14:53:44;101767.13;;;29.22;29.79
3294;BME280;1659;51.470;6.770;2023-06-01T14:56:11;101766.97;;;29.12;30.10
3294;BME280;1659;51.470;6.770;2023-06-01T14:58:37;101760.44;;;28.92;30.25
3294;BME280;1659;51.470;6.770;2023-06-01T15:01:04;101757.34;;;28.86;30.43
3294;BME280;1659;51.470;6.770;2023-06-01T15:03:30;101765.88;;;28.81;30.38
3294;BME280;1659;51.470;6.770;2023-06-01T15:05:59;101770.81;;;28.76;30.69
3294;BME280;1659;51.470;6.770;2023-06-01T15:08:25;101760.31;;;28.71;30.58
3294;BME280;1659;51.470;6.770;2023-06-01T15:10:54;101764.41;;;28.77;30.62
3294;BME280;1659;51.470;6.770;2023-06-01T15:13:20;101760.31;;;28.83;30.74
3294;BME280;1659;51.470;6.770;2023-06-01T15:15:47;101760.44;;;28.81;30.61
3294;BME280;1659;51.470;6.770;2023-06-01T15:18:13;101757.56;;;28.60;30.89
3294;BME280;1659;51.470;6.770;2023-06-01T15:20:40;101747.13;;;28.31;30.95
3294;BME280;1659;51.470;6.770;2023-06-01T15:23:08;101745.31;;;27.72;31.56
3294;BME280;1659;51.470;6.770;2023-06-01T15:25:34;101746.22;;;27.36;31.85
3294;BME280;1659;51.470;6.770;2023-06-01T15:28:01;101748.22;;;27.21;31.99
3294;BME280;1659;51.470;6.770;2023-06-01T15:30:27;101745.00;;;27.03;32.16
3294;BME280;1659;51.470;6.770;2023-06-01T15:32:56;101742.22;;;26.79;32.28
3294;BME280;1659;51.470;6.770;2023-06-01T15:35:23;101752.63;;;26.46;32.71
3294;BME280;1659;51.470;6.770;2023-06-01T15:37:50;101745.13;;;26.11;33.11
3294;BME280;1659;51.470;6.770;2023-06-01T15:40:18;101738.72;;;25.72;33.70
3294;BME280;1659;51.470;6.770;2023-06-01T15:42:45;101748.69;;;25.30;34.24
3294;BME280;1659;51.470;6.770;2023-06-01T15:45:12;101739.28;;;24.94;34.80
3294;BME280;1659;51.470;6.770;2023-06-01T15:47:38;101735.34;;;24.71;34.79
3294;BME280;1659;51.470;6.770;2023-06-01T15:50:06;101727.03;;;24.60;35.16
3294;BME280;1659;51.470;6.770;2023-06-01T15:52:33;101736.19;;;24.43;35.24
3294;BME280;1659;51.470;6.770;2023-06-01T15:54:59;101725.06;;;24.33;35.50
3294;BME280;1659;51.470;6.770;2023-06-01T15:57:30;101726.75;;;24.20;35.46
3294;BME280;1659;51.470;6.770;2023-06-01T15:59:56;101729.53;;;24.04;35.85
3294;BME280;1659;51.470;6.770;2023-06-01T16:02:23;101715.44;;;23.99;36.09
3294;BME280;1659;51.470;6.770;2023-06-01T16:04:49;101724.00;;;23.91;36.04
3294;BME280;1659;51.470;6.770;2023-06-01T16:07:16;101721.56;;;23.86;36.24
3294;BME280;1659;51.470;6.770;2023-06-01T16:09:43;101710.53;;;23.75;36.30
3294;BME280;1659;51.470;6.770;2023-06-01T16:12:09;101703.94;;;23.65;36.42
3294;BME280;1659;51.470;6.770;2023-06-01T16:14:37;101711.16;;;23.48;36.88
3294;BME280;1659;51.470;6.770;2023-06-01T16:17:04;101711.78;;;23.37;37.11